sensor_id;sensor_type;location;lat;lon;timestamp;P1;durP1;ratioP1;P2;durP2;ratioP2
70416;SDS011;57839;51.332;12.410;2024-01-25T00:00:52;15.85;;;4.57;;
70416;SDS011;57839;51.332;12.410;2024-01-25T00:03:18;13.52;;;4.07;;
70416;SDS011;57839;51.332;12.410;2024-01-25T00:05:43;20.02;;;5.25;;
70416;SDS011;57839;51.332;12.410;2024-01-25T00:08:09;19.42;;;4.63;;
70416;SDS011;57839;51.332;12.410;2024-01-25T00:10:34;18.25;;;4.18;;
70416;SDS011;57839;51.332;12.410;2024-01-25T00:13:00;16.50;;;4.15;;
70416;SDS011;57839;51.332;12.410;2024-01-25T00:15:26;21.63;;;4.63;;
70416;SDS011;57839;51.332;12.410;2024-01-25T00:17:52;27.88;;;5.03;;
70416;SDS011;57839;51.332;12.410;2024-01-25T00:20:17;17.65;;;3.85;;
70416;SDS011;57839;51.332;12.410;2024-01-25T00:22:42;18.83;;;4.53;;
70416;SDS011;57839;51.332;12.410;2024-01-25T00:25:08;18.60;;;4.47;;
70416;SDS011;57839;51.332;12.410;2024-01-25T00:27:33;16.42;;;4.00;;
70416;SDS011;57839;51.332;12.410;2024-01-25T00:29:59;18.25;;;4.40;;
70416;SDS011;57839;51.332;12.410;2024-01-25T00:32:25;14.15;;;4.05;;
70416;SDS011;57839;51.332;12.410;2024-01-25T00:34:50;19.30;;;4.28;;
70416;SDS011;57839;51.332;12.410;2024-01-25T00:37:16;17.77;;;4.38;;
70416;SDS011;57839;51.332;12.410;2024-01-25T00:39:42;13.23;;;3.70;;
70416;SDS011;57839;51.332;12.410;2024-01-25T00:42:07;18.98;;;4.35;;
70416;SDS011;57839;51.332;12.410;2024-01-25T00:44:37;21.42;;;4.97;;
70416;SDS011;57839;51.332;12.410;2024-01-25T00:47:03;19.17;;;4.45;;
70416;SDS011;57839;51.332;12.410;2024-01-25T00:49:29;20.20;;;4.82;;
70416;SDS011;57839;51.332;12.410;2024-01-25T00:51:58;20.35;;;4.93;;
70416;SDS011;57839;51.332;12.410;2024-01-25T00:54:25;20.35;;;4.38;;
70416;SDS011;57839;51.332;12.410;2024-01-25T00:56:50;18.15;;;4.78;;
70416;SDS011;57839;51.332;12.410;2024-01-25T00:59:18;20.45;;;4.32;;
70416;SDS011;57839;51.332;12.410;2024-01-25T01:01:44;17.58;;;4.30;;
70416;SDS011;57839;51.332;12.410;2024-01-25T01:04:12;23.08;;;4.32;;
70416;SDS011;57839;51.332;12.410;2024-01-25T01:06:37;20.70;;;4.40;;
70416;SDS011;57839;51.332;12.410;2024-01-25T01:09:03;28.35;;;4.75;;
70416;SDS011;57839;51.332;12.410;2024-01-25T01:11:29;18.83;;;4.80;;
70416;SDS011;57839;51.332;12.410;2024-01-25T01:13:55;21.83;;;4.53;;
70416;SDS011;57839;51.332;12.410;2024-01-25T01:16:20;25.15;;;5.47;;
70416;SDS011;57839;51.332;12.410;2024-01-25T01:18:46;20.33;;;5.10;;
70416;SDS011;57839;51.332;12.410;2024-01-25T01:21:11;23.00;;;4.50;;
70416;SDS011;57839;51.332;12.410;2024-01-25T01:23:37;19.98;;;4.45;;
70416;SDS011;57839;51.332;12.410;2024-01-25T01:26:03;18.65;;;4.57;;
70416;SDS011;57839;51.332;12.410;2024-01-25T01:28:29;28.02;;;4.97;;
70416;SDS011;57839;51.332;12.410;2024-01-25T01:30:55;20.35;;;5.15;;
70416;SDS011;57839;51.332;12.410;2024-01-25T01:33:20;24.00;;;4.22;;
70416;SDS011;57839;51.332;12.410;2024-01-25T01:35:46;17.55;;;3.97;;
70416;SDS011;57839;51.332;12.410;2024-01-25T01:38:11;20.13;;;4.65;;
70416;SDS011;57839;51.332;12.410;2024-01-25T01:40:36;17.77;;;5.50;;
70416;SDS011;57839;51.332;12.410;2024-01-25T01:43:02;18.02;;;3.92;;
70416;SDS011;57839;51.332;12.410;2024-01-25T01:45:28;22.83;;;5.22;;
70416;SDS011;57839;51.332;12.410;2024-01-25T01:47:54;19.30;;;4.72;;
70416;SDS011;57839;51.332;12.410;2024-01-25T01:50:21;24.90;;;4.80;;
70416;SDS011;57839;51.332;12.410;2024-01-25T01:52:47;22.75;;;4.93;;
70416;SDS011;57839;51.332;12.410;2024-01-25T01:55:14;22.95;;;5.07;;
70416;SDS011;57839;51.332;12.410;2024-01-25T01:57:40;16.08;;;4.40;;
70416;SDS011;57839;51.332;12.410;2024-01-25T02:00:07;17.30;;;4.18;;
70416;SDS011;57839;51.332;12.410;2024-01-25T02:02:34;18.25;;;4.63;;
70416;SDS011;57839;51.332;12.410;2024-01-25T02:05:00;22.00;;;4.93;;
70416;SDS011;57839;51.332;12.410;2024-01-25T02:07:26;18.08;;;4.70;;
70416;SDS011;57839;51.332;12.410;2024-01-25T02:09:51;24.80;;;4.70;;
70416;SDS011;57839;51.332;12.410;2024-01-25T02:12:17;22.63;;;5.28;;
70416;SDS011;57839;51.332;12.410;2024-01-25T02:14:43;15.90;;;3.85;;
70416;SDS011;57839;51.332;12.410;2024-01-25T02:17:08;16.00;;;4.32;;
70416;SDS011;57839;51.332;12.410;2024-01-25T02:19:34;20.95;;;4.57;;
70416;SDS011;57839;51.332;12.410;2024-01-25T02:22:00;23.63;;;5.18;;
70416;SDS011;57839;51.332;12.410;2024-01-25T02:24:29;16.60;;;4.30;;
70416;SDS011;57839;51.332;12.410;2024-01-25T02:26:54;20.75;;;4.80;;
70416;SDS011;57839;51.332;12.410;2024-01-25T02:29:20;19.80;;;4.75;;
70416;SDS011;57839;51.332;12.410;2024-01-25T02:31:46;19.90;;;5.00;;
70416;SDS011;57839;51.332;12.410;2024-01-25T02:34:11;20.42;;;4.50;;
70416;SDS011;57839;51.332;12.410;2024-01-25T02:36:37;19.63;;;5.05;;
70416;SDS011;57839;51.332;12.410;2024-01-25T02:39:02;19.85;;;3.58;;
70416;SDS011;57839;51.332;12.410;2024-01-25T02:41:29;16.85;;;4.28;;
70416;SDS011;57839;51.332;12.410;2024-01-25T02:43:55;21.45;;;5.20;;
70416;SDS011;57839;51.332;12.410;2024-01-25T02:46:21;18.40;;;4.70;;
70416;SDS011;57839;51.332;12.410;2024-01-25T02:48:46;22.23;;;4.65;;
70416;SDS011;57839;51.332;12.410;2024-01-25T02:51:12;18.80;;;4.20;;
70416;SDS011;57839;51.332;12.410;2024-01-25T02:53:37;17.13;;;4.65;;
70416;SDS011;57839;51.332;12.410;2024-01-25T02:56:03;19.20;;;4.15;;
70416;SDS011;57839;51.332;12.410;2024-01-25T02:58:28;22.85;;;4.93;;
70416;SDS011;57839;51.332;12.410;2024-01-25T03:00:54;25.45;;;5.35;;
70416;SDS011;57839;51.332;12.410;2024-01-25T03:03:19;20.25;;;5.15;;
70416;SDS011;57839;51.332;12.410;2024-01-25T03:05:45;19.98;;;5.30;;
70416;SDS011;57839;51.332;12.410;2024-01-25T03:08:10;21.35;;;4.63;;
70416;SDS011;57839;51.332;12.410;2024-01-25T03:10:36;18.25;;;4.85;;
70416;SDS011;57839;51.332;12.410;2024-01-25T03:13:01;29.60;;;6.55;;
70416;SDS011;57839;51.332;12.410;2024-01-25T03:15:27;23.02;;;5.28;;
70416;SDS011;57839;51.332;12.410;2024-01-25T03:17:52;27.05;;;4.72;;
70416;SDS011;57839;51.332;12.410;2024-01-25T03:20:18;24.35;;;5.60;;
70416;SDS011;57839;51.332;12.410;2024-01-25T03:22:43;33.25;;;9.95;;
70416;SDS011;57839;51.332;12.410;2024-01-25T03:25:10;23.75;;;5.10;;
70416;SDS011;57839;51.332;12.410;2024-01-25T03:27:35;28.25;;;5.28;;
70416;SDS011;57839;51.332;12.410;2024-01-25T03:30:00;18.52;;;4.80;;
70416;SDS011;57839;51.332;12.410;2024-01-25T03:32:26;21.50;;;4.63;;
70416;SDS011;57839;51.332;12.410;2024-01-25T03:34:52;18.15;;;4.10;;
70416;SDS011;57839;51.332;12.410;2024-01-25T03:37:17;29.33;;;7.90;;
70416;SDS011;57839;51.332;12.410;2024-01-25T03:39:42;24.80;;;4.82;;
70416;SDS011;57839;51.332;12.410;2024-01-25T03:42:08;17.35;;;5.57;;
70416;SDS011;57839;51.332;12.410;2024-01-25T03:44:33;23.17;;;5.30;;
70416;SDS011;57839;51.332;12.410;2024-01-25T03:46:59;21.83;;;4.50;;
70416;SDS011;57839;51.332;12.410;2024-01-25T03:49:24;22.85;;;4.93;;
70416;SDS011;57839;51.332;12.410;2024-01-25T03:51:50;18.50;;;5.03;;
70416;SDS011;57839;51.332;12.410;2024-01-25T03:54:15;37.50;;;9.55;;
70416;SDS011;57839;51.332;12.410;2024-01-25T03:56:41;20.48;;;4.43;;
70416;SDS011;57839;51.332;12.410;2024-01-25T03:59:07;22.05;;;5.93;;
70416;SDS011;57839;51.332;12.410;2024-01-25T04:01:40;28.00;;;5.07;;
70416;SDS011;57839;51.332;12.410;2024-01-25T04:04:09;21.92;;;4.72;;
70416;SDS011;57839;51.332;12.410;2024-01-25T04:06:37;23.90;;;4.93;;
70416;SDS011;57839;51.332;12.410;2024-01-25T04:09:04;24.17;;;5.40;;
70416;SDS011;57839;51.332;12.410;2024-01-25T04:11:30;17.80;;;4.80;;
70416;SDS011;57839;51.332;12.410;2024-01-25T04:13:55;18.25;;;4.45;;
70416;SDS011;57839;51.332;12.410;2024-01-25T04:16:21;23.85;;;5.22;;
70416;SDS011;57839;51.332;12.410;2024-01-25T04:18:46;21.15;;;5.63;;
70416;SDS011;57839;51.332;12.410;2024-01-25T04:21:12;23.23;;;5.10;;
70416;SDS011;57839;51.332;12.410;2024-01-25T04:23:37;21.15;;;5.18;;
70416;SDS011;57839;51.332;12.410;2024-01-25T04:26:03;23.25;;;5.40;;
70416;SDS011;57839;51.332;12.410;2024-01-25T04:28:28;24.40;;;4.95;;
70416;SDS011;57839;51.332;12.410;2024-01-25T04:30:54;21.90;;;5.18;;
70416;SDS011;57839;51.332;12.410;2024-01-25T04:33:19;20.58;;;4.43;;
70416;SDS011;57839;51.332;12.410;2024-01-25T04:35:45;14.75;;;4.50;;
70416;SDS011;57839;51.332;12.410;2024-01-25T04:38:11;19.33;;;4.88;;
70416;SDS011;57839;51.332;12.410;2024-01-25T04:40:37;23.92;;;5.72;;
70416;SDS011;57839;51.332;12.410;2024-01-25T04:43:02;22.92;;;4.85;;
70416;SDS011;57839;51.332;12.410;2024-01-25T04:45:27;22.55;;;4.40;;
70416;SDS011;57839;51.332;12.410;2024-01-25T04:47:53;22.08;;;4.93;;
70416;SDS011;57839;51.332;12.410;2024-01-25T04:50:19;21.02;;;5.05;;
70416;SDS011;57839;51.332;12.410;2024-01-25T04:52:44;24.52;;;5.75;;
70416;SDS011;57839;51.332;12.410;2024-01-25T04:55:10;20.98;;;4.70;;
70416;SDS011;57839;51.332;12.410;2024-01-25T04:57:35;23.67;;;5.88;;
70416;SDS011;57839;51.332;12.410;2024-01-25T05:00:01;20.33;;;4.90;;
70416;SDS011;57839;51.332;12.410;2024-01-25T05:02:26;19.75;;;4.82;;
70416;SDS011;57839;51.332;12.410;2024-01-25T05:04:51;18.70;;;4.22;;
70416;SDS011;57839;51.332;12.410;2024-01-25T05:07:17;21.52;;;4.93;;
70416;SDS011;57839;51.332;12.410;2024-01-25T05:09:42;24.48;;;5.30;;
70416;SDS011;57839;51.332;12.410;2024-01-25T05:12:08;21.88;;;5.18;;
70416;SDS011;57839;51.332;12.410;2024-01-25T05:14:33;22.13;;;5.05;;
70416;SDS011;57839;51.332;12.410;2024-01-25T05:16:59;23.42;;;4.53;;
70416;SDS011;57839;51.332;12.410;2024-01-25T05:19:24;23.77;;;5.13;;
70416;SDS011;57839;51.332;12.410;2024-01-25T05:21:50;21.02;;;4.80;;
70416;SDS011;57839;51.332;12.410;2024-01-25T05:24:16;16.75;;;4.82;;
70416;SDS011;57839;51.332;12.410;2024-01-25T05:26:42;22.85;;;4.88;;
70416;SDS011;57839;51.332;12.410;2024-01-25T05:29:07;17.90;;;4.20;;
70416;SDS011;57839;51.332;12.410;2024-01-25T05:31:33;15.15;;;4.63;;
70416;SDS011;57839;51.332;12.410;2024-01-25T05:33:58;19.55;;;4.78;;
70416;SDS011;57839;51.332;12.410;2024-01-25T05:36:24;22.98;;;4.75;;
70416;SDS011;57839;51.332;12.410;2024-01-25T05:38:49;17.13;;;5.13;;
70416;SDS011;57839;51.332;12.410;2024-01-25T05:41:15;17.95;;;4.10;;
70416;SDS011;57839;51.332;12.410;2024-01-25T05:43:40;20.10;;;4.32;;
70416;SDS011;57839;51.332;12.410;2024-01-25T05:46:06;24.48;;;4.18;;
70416;SDS011;57839;51.332;12.410;2024-01-25T05:48:31;17.25;;;4.40;;
70416;SDS011;57839;51.332;12.410;2024-01-25T05:50:57;20.52;;;4.32;;
70416;SDS011;57839;51.332;12.410;2024-01-25T05:53:22;19.25;;;4.38;;
70416;SDS011;57839;51.332;12.410;2024-01-25T05:55:48;15.38;;;4.45;;
70416;SDS011;57839;51.332;12.410;2024-01-25T05:58:13;14.27;;;4.18;;
70416;SDS011;57839;51.332;12.410;2024-01-25T06:00:39;21.38;;;3.85;;
70416;SDS011;57839;51.332;12.410;2024-01-25T06:03:04;17.65;;;4.20;;
70416;SDS011;57839;51.332;12.410;2024-01-25T06:05:30;18.38;;;4.22;;
70416;SDS011;57839;51.332;12.410;2024-01-25T06:07:55;18.25;;;4.28;;
70416;SDS011;57839;51.332;12.410;2024-01-25T06:10:21;17.55;;;5.00;;
70416;SDS011;57839;51.332;12.410;2024-01-25T06:12:46;21.77;;;4.82;;
70416;SDS011;57839;51.332;12.410;2024-01-25T06:15:12;13.77;;;4.22;;
70416;SDS011;57839;51.332;12.410;2024-01-25T06:17:37;21.83;;;4.07;;
70416;SDS011;57839;51.332;12.410;2024-01-25T06:20:03;18.05;;;4.45;;
70416;SDS011;57839;51.332;12.410;2024-01-25T06:22:29;16.48;;;3.85;;
70416;SDS011;57839;51.332;12.410;2024-01-25T06:24:55;20.70;;;4.50;;
70416;SDS011;57839;51.332;12.410;2024-01-25T06:27:20;17.00;;;3.88;;
70416;SDS011;57839;51.332;12.410;2024-01-25T06:29:46;15.00;;;3.42;;
70416;SDS011;57839;51.332;12.410;2024-01-25T06:32:12;14.15;;;4.30;;
70416;SDS011;57839;51.332;12.410;2024-01-25T06:34:37;14.50;;;3.85;;
70416;SDS011;57839;51.332;12.410;2024-01-25T06:37:03;15.43;;;3.88;;
70416;SDS011;57839;51.332;12.410;2024-01-25T06:39:28;13.10;;;3.33;;
70416;SDS011;57839;51.332;12.410;2024-01-25T06:41:54;21.80;;;4.53;;
70416;SDS011;57839;51.332;12.410;2024-01-25T06:44:19;15.43;;;3.28;;
70416;SDS011;57839;51.332;12.410;2024-01-25T06:46:45;15.07;;;3.97;;
70416;SDS011;57839;51.332;12.410;2024-01-25T06:49:11;24.02;;;4.03;;
70416;SDS011;57839;51.332;12.410;2024-01-25T06:51:36;18.10;;;3.90;;
70416;SDS011;57839;51.332;12.410;2024-01-25T06:54:02;19.63;;;5.53;;
70416;SDS011;57839;51.332;12.410;2024-01-25T06:56:27;14.70;;;3.90;;
70416;SDS011;57839;51.332;12.410;2024-01-25T06:58:53;9.63;;;3.45;;
70416;SDS011;57839;51.332;12.410;2024-01-25T07:01:21;12.88;;;4.13;;
70416;SDS011;57839;51.332;12.410;2024-01-25T07:03:47;17.55;;;3.63;;
70416;SDS011;57839;51.332;12.410;2024-01-25T07:06:15;15.98;;;4.13;;
70416;SDS011;57839;51.332;12.410;2024-01-25T07:08:41;19.98;;;4.40;;
70416;SDS011;57839;51.332;12.410;2024-01-25T07:11:07;18.92;;;3.88;;
70416;SDS011;57839;51.332;12.410;2024-01-25T07:13:32;21.45;;;4.57;;
70416;SDS011;57839;51.332;12.410;2024-01-25T07:15:57;12.90;;;3.50;;
70416;SDS011;57839;51.332;12.410;2024-01-25T07:18:23;18.05;;;3.92;;
70416;SDS011;57839;51.332;12.410;2024-01-25T07:20:49;15.00;;;4.13;;
70416;SDS011;57839;51.332;12.410;2024-01-25T07:23:15;15.10;;;3.78;;
70416;SDS011;57839;51.332;12.410;2024-01-25T07:25:40;11.88;;;3.55;;
70416;SDS011;57839;51.332;12.410;2024-01-25T07:28:06;14.35;;;4.18;;
70416;SDS011;57839;51.332;12.410;2024-01-25T07:30:32;14.57;;;3.30;;
70416;SDS011;57839;51.332;12.410;2024-01-25T07:32:57;15.23;;;4.03;;
70416;SDS011;57839;51.332;12.410;2024-01-25T07:35:23;10.50;;;3.45;;
70416;SDS011;57839;51.332;12.410;2024-01-25T07:37:49;14.73;;;3.35;;
70416;SDS011;57839;51.332;12.410;2024-01-25T07:40:14;17.20;;;4.00;;
70416;SDS011;57839;51.332;12.410;2024-01-25T07:42:40;12.77;;;3.30;;
70416;SDS011;57839;51.332;12.410;2024-01-25T07:45:06;15.55;;;4.10;;
70416;SDS011;57839;51.332;12.410;2024-01-25T07:47:32;14.52;;;3.78;;
70416;SDS011;57839;51.332;12.410;2024-01-25T07:49:58;14.63;;;3.92;;
70416;SDS011;57839;51.332;12.410;2024-01-25T07:52:24;11.65;;;3.92;;
70416;SDS011;57839;51.332;12.410;2024-01-25T07:54:49;13.60;;;3.20;;
70416;SDS011;57839;51.332;12.410;2024-01-25T07:57:15;15.82;;;4.13;;
70416;SDS011;57839;51.332;12.410;2024-01-25T07:59:40;15.07;;;3.55;;
70416;SDS011;57839;51.332;12.410;2024-01-25T08:02:06;17.30;;;3.97;;
70416;SDS011;57839;51.332;12.410;2024-01-25T08:04:32;13.82;;;3.60;;
70416;SDS011;57839;51.332;12.410;2024-01-25T08:06:57;15.23;;;4.07;;
70416;SDS011;57839;51.332;12.410;2024-01-25T08:09:23;17.08;;;4.70;;
70416;SDS011;57839;51.332;12.410;2024-01-25T08:11:49;17.85;;;3.83;;
70416;SDS011;57839;51.332;12.410;2024-01-25T08:14:14;15.95;;;4.07;;
70416;SDS011;57839;51.332;12.410;2024-01-25T08:16:41;16.00;;;4.65;;
70416;SDS011;57839;51.332;12.410;2024-01-25T08:19:06;18.35;;;4.63;;
70416;SDS011;57839;51.332;12.410;2024-01-25T08:21:32;20.45;;;4.57;;
70416;SDS011;57839;51.332;12.410;2024-01-25T08:23:57;21.20;;;4.85;;
70416;SDS011;57839;51.332;12.410;2024-01-25T08:26:23;12.70;;;3.88;;
70416;SDS011;57839;51.332;12.410;2024-01-25T08:28:49;20.42;;;4.45;;
70416;SDS011;57839;51.332;12.410;2024-01-25T08:31:14;18.65;;;4.50;;
70416;SDS011;57839;51.332;12.410;2024-01-25T08:33:41;14.98;;;4.15;;
70416;SDS011;57839;51.332;12.410;2024-01-25T08:36:09;16.40;;;4.40;;
70416;SDS011;57839;51.332;12.410;2024-01-25T08:38:35;15.63;;;3.90;;
70416;SDS011;57839;51.332;12.410;2024-01-25T08:41:01;17.08;;;4.70;;
70416;SDS011;57839;51.332;12.410;2024-01-25T08:43:26;15.27;;;4.05;;
70416;SDS011;57839;51.332;12.410;2024-01-25T08:45:52;16.73;;;4.47;;
70416;SDS011;57839;51.332;12.410;2024-01-25T08:48:18;18.20;;;4.70;;
70416;SDS011;57839;51.332;12.410;2024-01-25T08:50:43;17.73;;;4.07;;
70416;SDS011;57839;51.332;12.410;2024-01-25T08:53:09;17.52;;;4.78;;
70416;SDS011;57839;51.332;12.410;2024-01-25T08:55:35;19.48;;;4.55;;
70416;SDS011;57839;51.332;12.410;2024-01-25T08:58:00;18.27;;;4.13;;
70416;SDS011;57839;51.332;12.410;2024-01-25T09:00:26;12.18;;;3.97;;
70416;SDS011;57839;51.332;12.410;2024-01-25T09:02:51;19.25;;;4.43;;
70416;SDS011;57839;51.332;12.410;2024-01-25T09:05:18;21.13;;;5.35;;
70416;SDS011;57839;51.332;12.410;2024-01-25T09:07:44;19.45;;;5.22;;
70416;SDS011;57839;51.332;12.410;2024-01-25T09:10:10;18.10;;;4.45;;
70416;SDS011;57839;51.332;12.410;2024-01-25T09:12:37;13.90;;;4.63;;
70416;SDS011;57839;51.332;12.410;2024-01-25T09:15:03;18.40;;;3.75;;
70416;SDS011;57839;51.332;12.410;2024-01-25T09:17:28;18.17;;;5.05;;
70416;SDS011;57839;51.332;12.410;2024-01-25T09:19:54;19.00;;;4.75;;
70416;SDS011;57839;51.332;12.410;2024-01-25T09:22:23;16.95;;;4.30;;
70416;SDS011;57839;51.332;12.410;2024-01-25T09:24:49;13.95;;;4.57;;
70416;SDS011;57839;51.332;12.410;2024-01-25T09:27:15;21.42;;;4.57;;
70416;SDS011;57839;51.332;12.410;2024-01-25T09:29:41;15.10;;;4.50;;
70416;SDS011;57839;51.332;12.410;2024-01-25T09:32:07;20.58;;;4.25;;
70416;SDS011;57839;51.332;12.410;2024-01-25T09:34:36;18.58;;;3.97;;
70416;SDS011;57839;51.332;12.410;2024-01-25T09:37:03;14.70;;;4.30;;
70416;SDS011;57839;51.332;12.410;2024-01-25T09:39:29;17.85;;;3.95;;
70416;SDS011;57839;51.332;12.410;2024-01-25T09:41:54;14.60;;;4.70;;
70416;SDS011;57839;51.332;12.410;2024-01-25T09:44:20;19.00;;;4.40;;
70416;SDS011;57839;51.332;12.410;2024-01-25T09:46:46;19.42;;;4.22;;
70416;SDS011;57839;51.332;12.410;2024-01-25T09:49:11;19.02;;;4.45;;
70416;SDS011;57839;51.332;12.410;2024-01-25T09:51:38;14.15;;;3.25;;
70416;SDS011;57839;51.332;12.410;2024-01-25T09:54:06;13.48;;;3.75;;
70416;SDS011;57839;51.332;12.410;2024-01-25T09:56:32;11.88;;;3.35;;
70416;SDS011;57839;51.332;12.410;2024-01-25T09:58:59;16.63;;;4.43;;
70416;SDS011;57839;51.332;12.410;2024-01-25T10:01:25;10.38;;;3.10;;
70416;SDS011;57839;51.332;12.410;2024-01-25T10:03:52;15.55;;;3.58;;
70416;SDS011;57839;51.332;12.410;2024-01-25T10:06:17;11.15;;;3.30;;
70416;SDS011;57839;51.332;12.410;2024-01-25T10:08:44;13.20;;;3.38;;
70416;SDS011;57839;51.332;12.410;2024-01-25T10:11:10;20.85;;;3.65;;
70416;SDS011;57839;51.332;12.410;2024-01-25T10:13:46;13.43;;;3.53;;
70416;SDS011;57839;51.332;12.410;2024-01-25T10:16:13;15.27;;;3.60;;
70416;SDS011;57839;51.332;12.410;2024-01-25T10:18:40;13.70;;;3.35;;
70416;SDS011;57839;51.332;12.410;2024-01-25T10:21:09;13.13;;;3.55;;
70416;SDS011;57839;51.332;12.410;2024-01-25T10:23:35;15.85;;;3.45;;
70416;SDS011;57839;51.332;12.410;2024-01-25T10:26:00;12.00;;;3.13;;
70416;SDS011;57839;51.332;12.410;2024-01-25T10:28:27;19.88;;;4.18;;
70416;SDS011;57839;51.332;12.410;2024-01-25T10:31:00;10.70;;;3.20;;
70416;SDS011;57839;51.332;12.410;2024-01-25T10:33:27;14.27;;;3.08;;
70416;SDS011;57839;51.332;12.410;2024-01-25T10:35:56;13.77;;;2.90;;
70416;SDS011;57839;51.332;12.410;2024-01-25T10:38:31;17.70;;;3.05;;
70416;SDS011;57839;51.332;12.410;2024-01-25T10:41:00;14.48;;;3.10;;
70416;SDS011;57839;51.332;12.410;2024-01-25T10:43:28;11.57;;;3.33;;
70416;SDS011;57839;51.332;12.410;2024-01-25T10:45:55;13.27;;;3.25;;
70416;SDS011;57839;51.332;12.410;2024-01-25T10:48:23;14.73;;;3.85;;
70416;SDS011;57839;51.332;12.410;2024-01-25T10:50:50;14.25;;;3.38;;
70416;SDS011;57839;51.332;12.410;2024-01-25T10:53:16;13.32;;;3.70;;
70416;SDS011;57839;51.332;12.410;2024-01-25T10:55:42;12.90;;;3.85;;
70416;SDS011;57839;51.332;12.410;2024-01-25T10:58:08;13.93;;;3.42;;
70416;SDS011;57839;51.332;12.410;2024-01-25T11:00:34;11.60;;;2.95;;
70416;SDS011;57839;51.332;12.410;2024-01-25T11:03:00;17.05;;;3.45;;
70416;SDS011;57839;51.332;12.410;2024-01-25T11:05:26;13.80;;;3.60;;
70416;SDS011;57839;51.332;12.410;2024-01-25T11:07:52;13.38;;;2.90;;
70416;SDS011;57839;51.332;12.410;2024-01-25T11:10:18;14.18;;;3.85;;
70416;SDS011;57839;51.332;12.410;2024-01-25T11:12:48;15.63;;;3.50;;
70416;SDS011;57839;51.332;12.410;2024-01-25T11:15:22;11.30;;;3.28;;
70416;SDS011;57839;51.332;12.410;2024-01-25T11:17:55;13.85;;;3.03;;
70416;SDS011;57839;51.332;12.410;2024-01-25T11:20:26;14.33;;;2.83;;
70416;SDS011;57839;51.332;12.410;2024-01-25T11:22:57;14.77;;;3.42;;
70416;SDS011;57839;51.332;12.410;2024-01-25T11:25:27;10.88;;;3.13;;
70416;SDS011;57839;51.332;12.410;2024-01-25T11:27:54;15.20;;;2.80;;
70416;SDS011;57839;51.332;12.410;2024-01-25T11:30:20;13.25;;;3.17;;
70416;SDS011;57839;51.332;12.410;2024-01-25T11:32:46;13.98;;;2.70;;
70416;SDS011;57839;51.332;12.410;2024-01-25T11:35:13;13.75;;;3.30;;
70416;SDS011;57839;51.332;12.410;2024-01-25T11:37:42;14.63;;;3.33;;
70416;SDS011;57839;51.332;12.410;2024-01-25T11:40:10;12.35;;;3.30;;
70416;SDS011;57839;51.332;12.410;2024-01-25T11:42:36;13.05;;;3.10;;
70416;SDS011;57839;51.332;12.410;2024-01-25T11:45:02;9.30;;;3.08;;
70416;SDS011;57839;51.332;12.410;2024-01-25T11:47:30;10.30;;;2.85;;
70416;SDS011;57839;51.332;12.410;2024-01-25T11:49:56;11.77;;;3.03;;
70416;SDS011;57839;51.332;12.410;2024-01-25T11:52:21;12.68;;;3.03;;
70416;SDS011;57839;51.332;12.410;2024-01-25T11:54:47;14.25;;;3.25;;
70416;SDS011;57839;51.332;12.410;2024-01-25T11:57:12;10.57;;;2.80;;
70416;SDS011;57839;51.332;12.410;2024-01-25T11:59:38;11.65;;;2.95;;
70416;SDS011;57839;51.332;12.410;2024-01-25T12:02:04;11.75;;;2.65;;
70416;SDS011;57839;51.332;12.410;2024-01-25T12:04:30;10.95;;;2.67;;
70416;SDS011;57839;51.332;12.410;2024-01-25T12:06:55;8.57;;;2.53;;
70416;SDS011;57839;51.332;12.410;2024-01-25T12:09:21;14.27;;;3.10;;
70416;SDS011;57839;51.332;12.410;2024-01-25T12:11:49;10.63;;;3.08;;
70416;SDS011;57839;51.332;12.410;2024-01-25T12:14:16;12.95;;;3.13;;
70416;SDS011;57839;51.332;12.410;2024-01-25T12:16:42;9.25;;;2.67;;
70416;SDS011;57839;51.332;12.410;2024-01-25T12:19:07;11.52;;;2.75;;
70416;SDS011;57839;51.332;12.410;2024-01-25T12:21:33;11.73;;;3.42;;
70416;SDS011;57839;51.332;12.410;2024-01-25T12:23:59;18.52;;;3.80;;
70416;SDS011;57839;51.332;12.410;2024-01-25T12:26:25;12.38;;;2.58;;
70416;SDS011;57839;51.332;12.410;2024-01-25T12:28:50;11.77;;;2.90;;
70416;SDS011;57839;51.332;12.410;2024-01-25T12:31:16;10.27;;;2.88;;
70416;SDS011;57839;51.332;12.410;2024-01-25T12:33:43;12.25;;;3.65;;
70416;SDS011;57839;51.332;12.410;2024-01-25T12:36:09;11.90;;;3.22;;
70416;SDS011;57839;51.332;12.410;2024-01-25T12:38:34;13.15;;;3.60;;
70416;SDS011;57839;51.332;12.410;2024-01-25T12:41:00;12.80;;;3.55;;
70416;SDS011;57839;51.332;12.410;2024-01-25T12:43:28;11.20;;;2.88;;
70416;SDS011;57839;51.332;12.410;2024-01-25T12:45:54;11.82;;;3.63;;
70416;SDS011;57839;51.332;12.410;2024-01-25T12:48:20;15.73;;;2.97;;
70416;SDS011;57839;51.332;12.410;2024-01-25T12:50:45;10.02;;;2.92;;
70416;SDS011;57839;51.332;12.410;2024-01-25T12:53:11;11.48;;;3.05;;
70416;SDS011;57839;51.332;12.410;2024-01-25T12:55:38;12.18;;;2.85;;
70416;SDS011;57839;51.332;12.410;2024-01-25T12:58:03;9.48;;;3.13;;
70416;SDS011;57839;51.332;12.410;2024-01-25T13:00:29;13.20;;;3.15;;
70416;SDS011;57839;51.332;12.410;2024-01-25T13:02:55;11.90;;;3.33;;
70416;SDS011;57839;51.332;12.410;2024-01-25T13:05:22;13.30;;;3.00;;
70416;SDS011;57839;51.332;12.410;2024-01-25T13:07:47;11.27;;;3.00;;
70416;SDS011;57839;51.332;12.410;2024-01-25T13:10:13;10.93;;;2.85;;
70416;SDS011;57839;51.332;12.410;2024-01-25T13:12:39;14.75;;;3.13;;
70416;SDS011;57839;51.332;12.410;2024-01-25T13:15:05;12.40;;;3.08;;
70416;SDS011;57839;51.332;12.410;2024-01-25T13:17:33;13.05;;;2.78;;
70416;SDS011;57839;51.332;12.410;2024-01-25T13:20:00;14.98;;;3.65;;
70416;SDS011;57839;51.332;12.410;2024-01-25T13:22:25;12.27;;;3.20;;
70416;SDS011;57839;51.332;12.410;2024-01-25T13:24:52;14.52;;;3.08;;
70416;SDS011;57839;51.332;12.410;2024-01-25T13:27:17;10.88;;;3.20;;
70416;SDS011;57839;51.332;12.410;2024-01-25T13:29:43;9.48;;;3.08;;
70416;SDS011;57839;51.332;12.410;2024-01-25T13:32:09;14.30;;;3.45;;
70416;SDS011;57839;51.332;12.410;2024-01-25T13:34:34;11.70;;;2.97;;
70416;SDS011;57839;51.332;12.410;2024-01-25T13:37:00;12.73;;;3.25;;
70416;SDS011;57839;51.332;12.410;2024-01-25T13:39:26;13.85;;;3.42;;
70416;SDS011;57839;51.332;12.410;2024-01-25T13:41:51;9.80;;;3.08;;
70416;SDS011;57839;51.332;12.410;2024-01-25T13:44:17;14.13;;;3.45;;
70416;SDS011;57839;51.332;12.410;2024-01-25T13:46:42;12.43;;;2.58;;
70416;SDS011;57839;51.332;12.410;2024-01-25T13:49:08;9.63;;;3.00;;
70416;SDS011;57839;51.332;12.410;2024-01-25T13:51:34;10.68;;;2.83;;
70416;SDS011;57839;51.332;12.410;2024-01-25T13:53:59;9.13;;;2.80;;
70416;SDS011;57839;51.332;12.410;2024-01-25T13:56:25;11.20;;;2.88;;
70416;SDS011;57839;51.332;12.410;2024-01-25T13:58:51;12.48;;;3.10;;
70416;SDS011;57839;51.332;12.410;2024-01-25T14:01:16;12.57;;;3.60;;
70416;SDS011;57839;51.332;12.410;2024-01-25T14:03:42;9.10;;;3.08;;
70416;SDS011;57839;51.332;12.410;2024-01-25T14:06:07;13.85;;;3.63;;
70416;SDS011;57839;51.332;12.410;2024-01-25T14:08:37;12.02;;;2.92;;
70416;SDS011;57839;51.332;12.410;2024-01-25T14:11:03;15.38;;;3.40;;
70416;SDS011;57839;51.332;12.410;2024-01-25T14:13:31;13.70;;;3.35;;